createdAt,value
2022-08-05T00:00:22.063Z,100690.56
2022-08-05T00:00:48.403Z,100691.56
2022-08-05T00:01:20.500Z,100692.25
2022-08-05T00:01:50.355Z,100698.56
2022-08-05T00:02:14.735Z,100694.84
2022-08-05T00:02:38.149Z,100688.53
2022-08-05T00:03:06.638Z,100698.44
2022-08-05T00:03:37.262Z,100685.97
2022-08-05T00:03:59.443Z,100690.41
2022-08-05T00:04:21.119Z,100693.97
2022-08-05T00:04:43.738Z,100692.97
2022-08-05T00:05:07.344Z,100688.53
2022-08-05T00:06:04.909Z,100690.13
2022-08-05T00:06:33.357Z,100696.41
2022-08-05T00:06:57.724Z,100685.66
2022-08-05T00:07:59.196Z,100686.66
2022-08-05T00:08:05.112Z,100683.25
2022-08-05T00:08:35.732Z,100684.25
2022-08-05T00:08:57.946Z,100681.38
2022-08-05T00:09:19.846Z,100682.53
2022-08-05T00:09:43.006Z,100687.84
2022-08-05T00:10:06.352Z,100694.28
2022-08-05T00:10:30.893Z,100681.69
2022-08-05T00:10:52.532Z,100687.13
2022-08-05T00:11:30.328Z,100681.69
2022-08-05T00:11:59.957Z,100679.97
2022-08-05T00:12:21.779Z,100687.84
2022-08-05T00:12:55.843Z,100692.13
2022-08-05T00:13:18.770Z,100685.81
2022-08-05T00:14:28.954Z,100691.25
2022-08-05T00:14:51.655Z,100691.25
2022-08-05T00:15:54.126Z,100698.44
2022-08-05T00:15:58.045Z,100688.84
2022-08-05T00:16:35.430Z,100694.28
2022-08-05T00:16:58.740Z,100696.16
2022-08-05T00:17:23.842Z,100699.75
2022-08-05T00:17:47.488Z,100697.00
2022-08-05T00:18:09.668Z,100703.16
2022-08-05T00:18:48.212Z,100699.75
2022-08-05T00:19:10.515Z,100697.72
2022-08-05T00:19:33.801Z,100702.47
2022-08-05T00:20:06.937Z,100709.63
2022-08-05T00:20:29.869Z,100704.88
2022-08-05T00:20:52.156Z,100705.19
2022-08-05T00:21:16.419Z,100711.31
2022-08-05T00:21:39.119Z,100699.59
2022-08-05T00:22:04.619Z,100698.88
2022-08-05T00:22:26.290Z,100706.59
2022-08-05T00:22:57.338Z,100690.84
2022-08-05T00:23:44.676Z,100699.28
2022-08-05T00:24:11.029Z,100697.56
2022-08-05T00:24:38.680Z,100697.56
2022-08-05T00:25:04.874Z,100697.41
2022-08-05T00:25:45.358Z,100692.84
2022-08-05T00:26:09.565Z,100697.09
2022-08-05T00:26:31.239Z,100692.66
2022-08-05T00:26:53.702Z,100689.06
2022-08-05T00:27:16.905Z,100692.84
2022-08-05T00:27:39.449Z,100680.06
2022-08-05T00:28:04.727Z,100681.75
2022-08-05T00:28:29.595Z,100677.91
2022-08-05T00:28:52.595Z,100682.47
2022-08-05T00:29:14.296Z,100674.44
2022-08-05T00:29:38.007Z,100675.84
2022-08-05T00:30:03.063Z,100669.59
2022-08-05T00:30:29.325Z,100680.47
2022-08-05T00:30:53.769Z,100674.84
2022-08-05T00:31:15.445Z,100671.28
2022-08-05T00:31:53.884Z,100669.59
2022-08-05T00:32:19.826Z,100678.44
2022-08-05T00:32:41.489Z,100663.09
2022-08-05T00:33:04.396Z,100673.00
2022-08-05T00:34:53.951Z,100669.13
2022-08-05T00:34:55.859Z,100668.53
2022-08-05T00:35:05.019Z,100665.22
2022-08-05T00:35:33.352Z,100671.84
2022-08-05T00:36:16.028Z,100664.53
2022-08-05T00:37:11.307Z,100668.94
2022-08-05T00:37:20.170Z,100672.38
2022-08-05T00:37:53.117Z,100662.34
2022-08-05T00:38:15.450Z,100667.06
2022-08-05T00:38:51.843Z,100669.81
2022-08-05T00:39:14.366Z,100668.09
2022-08-05T00:39:44.439Z,100662.81
2022-08-05T00:40:26.767Z,100661.22
2022-08-05T00:40:53.766Z,100664.97
2022-08-05T00:41:27.491Z,100667.00
2022-08-05T00:42:09.174Z,100667.16
2022-08-05T00:42:32.597Z,100660.69
2022-08-05T00:42:54.741Z,100663.41
2022-08-05T00:43:17.683Z,100657.97
2022-08-05T00:43:47.221Z,100663.41
2022-08-05T00:44:11.611Z,100664.28
2022-08-05T00:44:33.251Z,100667.88
2022-08-05T00:44:56.399Z,100662.41
2022-08-05T00:45:28.233Z,100662.69
2022-08-05T00:46:00.109Z,100665.13
2022-08-05T00:46:36.894Z,100667.88
2022-08-05T00:47:05.894Z,100668.88
2022-08-05T00:47:31.651Z,100667.00
2022-08-05T00:48:11.177Z,100669.59
2022-08-05T00:48:32.977Z,100665.81
2022-08-05T00:49:14.014Z,100667.69
2022-08-05T00:49:44.651Z,100673.13
2022-08-05T00:50:13.125Z,100666.28
2022-08-05T00:50:35.249Z,100671.91
2022-08-05T00:50:58.379Z,100663.72
2022-08-05T00:51:51.999Z,100674.78
2022-08-05T00:52:02.428Z,100674.91
2022-08-05T00:52:28.699Z,100673.91
2022-08-05T00:52:51.662Z,100669.47
2022-08-05T00:54:00.971Z,100670.19
2022-08-05T00:54:04.147Z,100663.88
2022-08-05T00:54:28.118Z,100673.59
2022-08-05T00:54:51.795Z,100679.03
2022-08-05T00:55:13.713Z,100666.47
2022-08-05T00:55:42.420Z,100665.28
2022-08-05T00:56:05.511Z,100661.00
2022-08-05T00:56:29.674Z,100678.03
2022-08-05T00:56:53.143Z,100668.00
2022-08-05T00:57:14.993Z,100666.13
2022-08-05T00:57:58.508Z,100662.41
2022-08-05T00:58:21.786Z,100667.69
2022-08-05T00:58:49.507Z,100667.88
2022-08-05T00:59:11.193Z,100672.44
2022-08-05T00:59:34.604Z,100668.88
2022-08-05T01:00:10.998Z,100683.34
2022-08-05T01:00:32.987Z,100678.75
2022-08-05T01:00:55.430Z,100685.94
2022-08-05T01:01:24.771Z,100684.03
2022-08-05T01:01:59.811Z,100679.63
2022-08-05T01:02:24.331Z,100691.50
2022-08-05T01:02:46.124Z,100688.94
2022-08-05T01:03:08.147Z,100687.38
2022-08-05T01:03:34.094Z,100683.81
2022-08-05T01:03:55.882Z,100684.66
2022-08-05T01:04:20.139Z,100682.09
2022-08-05T01:04:48.904Z,100689.94
2022-08-05T01:05:13.541Z,100695.38
2022-08-05T01:05:35.297Z,100693.69
2022-08-05T01:05:56.978Z,100685.53
2022-08-05T01:06:19.638Z,100698.09
2022-08-05T01:06:41.303Z,100692.66
2022-08-05T01:07:05.920Z,100689.25
2022-08-05T01:07:35.272Z,100697.41
2022-08-05T01:08:30.433Z,100691.97
2022-08-05T01:08:43.255Z,100705.59
2022-08-05T01:09:08.393Z,100699.13
2022-08-05T01:09:30.587Z,100701.88
2022-08-05T01:09:55.762Z,100699.13
2022-08-05T01:10:20.864Z,100695.38
2022-08-05T01:10:53.644Z,100698.28
2022-08-05T01:11:21.754Z,100698.28
2022-08-05T01:11:49.445Z,100700.69
2022-08-05T01:12:18.266Z,100697.97
2022-08-05T01:12:54.338Z,100694.53
2022-08-05T01:13:58.018Z,100691.97
2022-08-05T01:14:28.001Z,100692.84
2022-08-05T01:14:56.319Z,100689.41
2022-08-05T01:15:35.414Z,100688.06
2022-08-05T01:16:01.037Z,100691.81
2022-08-05T01:16:31.401Z,100691.97
2022-08-05T01:17:00.080Z,100695.69
2022-08-05T01:17:29.916Z,100690.41
2022-08-05T01:17:58.206Z,100692.97
2022-08-05T01:18:25.085Z,100694.69
2022-08-05T01:18:56.340Z,100702.16
2022-08-05T01:19:56.576Z,100694.97
2022-08-05T01:20:27.087Z,100694.97
2022-08-05T01:21:02.610Z,100698.88
2022-08-05T01:21:44.956Z,100693.56
2022-08-05T01:22:27.732Z,100691.84
2022-08-05T01:23:15.332Z,100707.50
2022-08-05T01:24:03.554Z,100709.81
2022-08-05T01:24:50.963Z,100704.66
2022-08-05T01:25:53.251Z,100696.81
2022-08-05T01:26:44.243Z,100709.41
2022-08-05T01:27:22.222Z,100712.13
2022-08-05T01:27:59.956Z,100706.56
2022-08-05T01:28:27.095Z,100706.69
2022-08-05T01:28:54.815Z,100703.22
2022-08-05T01:29:22.970Z,100704.09
2022-08-05T01:29:48.766Z,100710.69
2022-08-05T01:30:18.833Z,100704.53
2022-08-05T01:30:55.263Z,100707.25
2022-08-05T01:31:24.538Z,100710.97
2022-08-05T01:31:49.824Z,100713.69
2022-08-05T01:32:18.444Z,100710.97
2022-08-05T01:32:45.350Z,100710.97
2022-08-05T01:33:09.475Z,100710.97
2022-08-05T01:33:35.490Z,100717.00
2022-08-05T01:34:03.851Z,100708.97
2022-08-05T01:34:28.059Z,100715.28
2022-08-05T01:34:55.166Z,100711.38
2022-08-05T01:35:50.585Z,100715.97
2022-08-05T01:36:13.008Z,100712.41
2022-08-05T01:36:47.126Z,100711.69
2022-08-05T01:37:18.031Z,100711.56
2022-08-05T01:37:52.602Z,100724.31
2022-08-05T01:38:24.742Z,100711.84
2022-08-05T01:38:50.883Z,100711.28
2022-08-05T01:39:34.605Z,100713.16
2022-08-05T01:39:59.848Z,100714.00
2022-08-05T01:40:28.015Z,100719.47
2022-08-05T01:40:53.914Z,100717.59
2022-08-05T01:41:21.733Z,100714.16
2022-08-05T01:41:47.402Z,100717.88
2022-08-05T01:42:13.825Z,100721.47
2022-08-05T01:42:39.571Z,100724.50
2022-08-05T01:43:04.146Z,100721.91
2022-08-05T01:43:29.239Z,100724.81
2022-08-05T01:43:52.689Z,100715.91
2022-08-05T01:44:15.905Z,100721.66
2022-08-05T01:44:40.818Z,100720.94
2022-08-05T01:45:04.077Z,100719.22
2022-08-05T01:45:34.946Z,100726.53
2022-08-05T01:46:07.474Z,100723.81
2022-08-05T01:46:42.134Z,100728.56
2022-08-05T01:47:07.583Z,100729.41
2022-08-05T01:47:39.442Z,100722.53
2022-08-05T01:48:03.141Z,100726.28
2022-08-05T01:48:35.788Z,100729.88
2022-08-05T01:48:59.749Z,100720.97
2022-08-05T01:49:25.033Z,100729.13
2022-08-05T01:50:00.546Z,100720.56
2022-08-05T01:50:28.841Z,100726.31
2022-08-05T01:50:54.830Z,100725.44
2022-08-05T01:51:18.892Z,100725.72
2022-08-05T01:51:41.624Z,100723.00
2022-08-05T01:52:17.891Z,100725.03
2022-08-05T01:52:43.912Z,100715.44
2022-08-05T01:53:10.000Z,100719.84
2022-08-05T01:53:57.102Z,100726.34
2022-08-05T01:54:25.604Z,100729.31
2022-08-05T01:54:54.024Z,100723.19
2022-08-05T01:55:17.715Z,100731.44
2022-08-05T01:55:43.206Z,100725.16
2022-08-05T01:56:06.254Z,100726.16
2022-08-05T01:58:10.381Z,100723.44
2022-08-05T01:58:29.499Z,100719.28
2022-08-05T01:58:30.226Z,100724.88
2022-08-05T01:58:52.229Z,100716.72
2022-08-05T01:59:18.838Z,100717.75
2022-08-05T01:59:47.241Z,100715.16
2022-08-05T02:00:12.088Z,100719.72
2022-08-05T02:00:37.855Z,100717.00
2022-08-05T02:01:01.480Z,100715.84
2022-08-05T02:01:25.560Z,100717.75
2022-08-05T02:01:54.702Z,100715.59
2022-08-05T02:02:19.828Z,100713.44
2022-08-05T02:02:56.094Z,100715.44
2022-08-05T02:03:29.114Z,100719.88
2022-08-05T02:03:57.932Z,100720.88
2022-08-05T02:04:22.367Z,100722.88
2022-08-05T02:04:49.545Z,100725.75
2022-08-05T02:05:14.838Z,100723.16
2022-08-05T02:05:40.242Z,100725.06
2022-08-05T02:06:33.641Z,100730.63
2022-08-05T02:06:49.466Z,100732.63
2022-08-05T02:07:11.271Z,100732.63
2022-08-05T02:07:56.294Z,100737.50
2022-08-05T02:08:30.802Z,100748.38
2022-08-05T02:08:58.589Z,100752.09
2022-08-05T02:09:21.098Z,100747.50
2022-08-05T02:09:43.464Z,100747.50
2022-08-05T02:10:09.718Z,100750.34
2022-08-05T02:10:41.758Z,100756.66
2022-08-05T02:11:08.089Z,100756.66
2022-08-05T02:11:48.182Z,100769.25
2022-08-05T02:12:22.551Z,100766.84
2022-08-05T02:12:52.399Z,100768.81
2022-08-05T02:13:19.939Z,100771.69
2022-08-05T02:13:53.975Z,100766.53
2022-08-05T02:14:26.876Z,100768.53
2022-08-05T02:14:54.318Z,100775.56
2022-08-05T02:15:24.044Z,100772.13
2022-08-05T02:15:50.906Z,100780.28
2022-08-05T02:16:22.088Z,100777.56
2022-08-05T02:16:52.362Z,100778.72
2022-08-05T02:18:27.729Z,100782.72
2022-08-05T02:18:33.342Z,100789.16
2022-08-05T02:18:56.419Z,100794.16
2022-08-05T02:19:25.497Z,100790.69
2022-08-05T02:19:53.077Z,100789.00
2022-08-05T02:20:20.634Z,100800.00
2022-08-05T02:20:48.358Z,100804.84
2022-08-05T02:21:15.524Z,100797.56
2022-08-05T02:21:46.818Z,100798.53
2022-08-05T02:22:25.750Z,100796.69
2022-08-05T02:22:55.105Z,100794.09
2022-08-05T02:23:22.264Z,100800.66
2022-08-05T02:23:48.520Z,100797.13
2022-08-05T02:24:18.081Z,100804.41
2022-08-05T02:24:41.604Z,100805.41
2022-08-05T02:25:08.776Z,100810.97
2022-08-05T02:25:49.784Z,100808.38
2022-08-05T02:26:17.192Z,100810.97
2022-08-05T02:26:53.919Z,100816.41
2022-08-05T02:27:19.832Z,100817.81
2022-08-05T02:27:59.538Z,100817.81
2022-08-05T02:28:29.328Z,100822.53
2022-08-05T02:28:55.480Z,100820.09
2022-08-05T02:29:26.067Z,100820.38
2022-08-05T02:30:06.275Z,100829.09
2022-08-05T02:30:34.479Z,100831.09
2022-08-05T02:31:00.396Z,100837.53
2022-08-05T02:31:28.315Z,100832.22
2022-08-05T02:31:51.452Z,100841.38
2022-08-05T02:32:24.198Z,100840.66
2022-08-05T02:32:54.251Z,100847.22
2022-08-05T02:33:24.410Z,100860.09
2022-08-05T02:34:01.361Z,100860.22
2022-08-05T02:34:25.013Z,100862.22
2022-08-05T02:34:55.023Z,100868.47
2022-08-05T02:35:27.804Z,100865.16
2022-08-05T02:36:00.647Z,100868.63
2022-08-05T02:36:27.248Z,100875.75
2022-08-05T02:36:53.049Z,100870.59
2022-08-05T02:37:16.543Z,100873.59
2022-08-05T02:37:40.219Z,100871.00
2022-08-05T02:38:03.932Z,100874.59
2022-08-05T02:38:35.135Z,100878.00
2022-08-05T02:38:58.249Z,100871.72
2022-08-05T02:39:23.370Z,100878.28
2022-08-05T02:39:47.708Z,100870.28
2022-08-05T02:40:14.440Z,100873.50
2022-08-05T02:40:37.420Z,100880.78
2022-08-05T02:40:59.698Z,100874.50
2022-08-05T02:41:57.665Z,100874.63
2022-08-05T02:42:27.344Z,100882.78
2022-08-05T02:42:54.047Z,100884.63
2022-08-05T02:43:18.145Z,100885.63
2022-08-05T02:44:02.532Z,100883.31
2022-08-05T02:44:28.327Z,100890.34
2022-08-05T02:44:50.858Z,100892.06
2022-08-05T02:45:16.227Z,100886.75
2022-08-05T02:45:52.484Z,100891.44
2022-08-05T02:46:17.671Z,100889.88
2022-08-05T02:46:58.692Z,100891.00
2022-08-05T02:47:24.728Z,100898.41
2022-08-05T02:48:12.554Z,100895.84
2022-08-05T02:48:35.425Z,100890.53
2022-08-05T02:48:58.772Z,100891.25
2022-08-05T02:49:22.422Z,100888.69
2022-08-05T02:49:46.793Z,100886.09
2022-08-05T02:50:13.630Z,100880.66
2022-08-05T02:50:44.025Z,100890.53
2022-08-05T02:51:06.498Z,100880.81
2022-08-05T02:52:02.694Z,100880.66
2022-08-05T02:52:30.233Z,100869.09
2022-08-05T02:52:53.749Z,100852.69
2022-08-05T02:53:19.478Z,100849.22
2022-08-05T02:53:42.405Z,100852.06
2022-08-05T02:54:05.520Z,100842.34
2022-08-05T02:54:35.047Z,100843.75
2022-08-05T02:55:01.946Z,100848.31
2022-08-05T02:55:53.959Z,100843.75
2022-08-05T02:56:15.995Z,100835.66
2022-08-05T02:56:46.048Z,100838.13
2022-08-05T02:58:11.773Z,100805.69
2022-08-05T02:58:12.049Z,100830.00
2022-08-05T02:58:37.870Z,100788.94
2022-08-05T02:59:07.285Z,100777.97
2022-08-05T02:59:30.518Z,100780.53
2022-08-05T03:00:13.706Z,100765.41
2022-08-05T03:00:36.907Z,100754.53
2022-08-05T03:01:02.625Z,100751.09
2022-08-05T03:01:27.123Z,100739.38
2022-08-05T03:01:51.994Z,100742.94
2022-08-05T03:02:15.323Z,100739.38
2022-08-05T03:02:39.561Z,100739.66
2022-08-05T03:03:03.079Z,100733.66
2022-08-05T03:03:33.823Z,100734.34
2022-08-05T03:04:15.763Z,100722.19
2022-08-05T03:04:39.865Z,100731.19
2022-08-05T03:05:02.929Z,100725.06
2022-08-05T03:06:55.503Z,100730.13
2022-08-05T03:06:56.335Z,100732.25
2022-08-05T03:06:57.160Z,100724.41
2022-08-05T03:07:40.620Z,100740.38
2022-08-05T03:08:08.555Z,100760.69
2022-08-05T03:08:31.216Z,100751.97
2022-08-05T03:08:53.903Z,100766.34
2022-08-05T03:09:18.039Z,100772.78
2022-08-05T03:09:59.308Z,100777.34
2022-08-05T03:10:21.990Z,100789.31
2022-08-05T03:11:53.117Z,100795.97
2022-08-05T03:11:55.787Z,100781.69
2022-08-05T03:12:29.529Z,100795.38
2022-08-05T03:12:51.942Z,100784.94
2022-08-05T03:13:16.705Z,100793.78
2022-08-05T03:13:52.173Z,100793.78
2022-08-05T03:14:22.546Z,100796.03
2022-08-05T03:14:46.006Z,100799.75
2022-08-05T03:15:12.273Z,100800.97
2022-08-05T03:15:34.359Z,100802.81
2022-08-05T03:15:57.588Z,100799.13
2022-08-05T03:16:20.898Z,100810.81
2022-08-05T03:16:43.526Z,100806.16
2022-08-05T03:17:09.019Z,100808.84
2022-08-05T03:17:30.844Z,100806.28
2022-08-05T03:17:55.792Z,100804.53
2022-08-05T03:18:18.867Z,100806.53
2022-08-05T03:18:51.835Z,100810.47
2022-08-05T03:19:29.497Z,100816.75
2022-08-05T03:19:58.538Z,100815.06
2022-08-05T03:20:20.324Z,100816.50
2022-08-05T03:20:48.541Z,100816.50
2022-08-05T03:21:11.816Z,100815.53
2022-08-05T03:21:33.538Z,100809.09
2022-08-05T03:22:16.371Z,100812.56
2022-08-05T03:22:44.163Z,100809.84
2022-08-05T03:23:10.226Z,100817.97
2022-08-05T03:23:33.212Z,100808.00
2022-08-05T03:23:57.776Z,100816.25
2022-08-05T03:24:30.058Z,100811.81
2022-08-05T03:24:52.715Z,100811.09
2022-08-05T03:25:33.392Z,100819.06
2022-08-05T03:26:29.913Z,100811.09
2022-08-05T03:26:40.216Z,100818.25
2022-08-05T03:27:02.034Z,100815.78
2022-08-05T03:27:29.504Z,100816.75
2022-08-05T03:28:02.095Z,100822.06
2022-08-05T03:28:24.489Z,100812.19
2022-08-05T03:28:46.484Z,100816.75
2022-08-05T03:29:12.391Z,100815.88
2022-08-05T03:29:46.064Z,100823.44
2022-08-05T03:30:33.316Z,100825.38
2022-08-05T03:30:56.397Z,100827.63
2022-08-05T03:31:55.442Z,100831.44
2022-08-05T03:32:01.599Z,100829.97
2022-08-05T03:32:31.098Z,100825.66
2022-08-05T03:32:55.330Z,100830.34
2022-08-05T03:33:17.643Z,100829.47
2022-08-05T03:33:50.916Z,100830.34
2022-08-05T03:34:15.815Z,100834.91
2022-08-05T03:34:38.750Z,100831.94
2022-08-05T03:35:04.488Z,100838.84
2022-08-05T03:35:28.143Z,100832.41
2022-08-05T03:35:52.377Z,100831.44
2022-08-05T03:36:14.186Z,100837.72
2022-08-05T03:36:37.035Z,100847.69
2022-08-05T03:37:03.203Z,100844.88
2022-08-05T03:37:25.210Z,100840.41
2022-08-05T03:37:47.156Z,100848.66
2022-08-05T03:38:12.396Z,100846.97
2022-08-05T03:38:41.132Z,100851.25
2022-08-05T03:39:08.085Z,100851.38
2022-08-05T03:39:58.542Z,100853.69
2022-08-05T03:40:24.070Z,100851.53
2022-08-05T03:40:48.444Z,100856.69
2022-08-05T03:41:11.497Z,100861.72
2022-08-05T03:41:38.665Z,100852.72
2022-08-05T03:42:07.274Z,100850.53
2022-08-05T03:42:31.987Z,100857.41
2022-08-05T03:42:55.284Z,100852.00
2022-08-05T03:44:08.241Z,100851.88
2022-08-05T03:44:11.287Z,100843.34
2022-08-05T03:44:34.567Z,100834.34
2022-08-05T03:44:58.093Z,100826.50
2022-08-05T03:45:22.769Z,100827.88
2022-08-05T03:45:58.137Z,100817.63
2022-08-05T03:46:21.609Z,100814.19
2022-08-05T03:46:48.726Z,100819.47
2022-08-05T03:47:10.887Z,100816.63
2022-08-05T03:47:41.280Z,100809.09
2022-08-05T03:48:05.060Z,100810.81
2022-08-05T03:48:26.973Z,100809.84
2022-08-05T03:48:49.812Z,100816.00
2022-08-05T03:49:12.619Z,100800.00
2022-08-05T03:49:51.437Z,100806.66
2022-08-05T03:50:14.016Z,100811.09
2022-08-05T03:50:43.688Z,100814.53
2022-08-05T03:52:36.467Z,100815.25
2022-08-05T03:52:48.332Z,100813.31
2022-08-05T03:55:00.536Z,100815.00
2022-08-05T03:55:51.364Z,100807.88
2022-08-05T03:55:53.363Z,100811.56
2022-08-05T03:56:09.962Z,100814.88
2022-08-05T03:56:10.784Z,100811.19
2022-08-05T03:56:41.407Z,100807.59
2022-08-05T03:57:16.327Z,100814.88
2022-08-05T03:57:42.070Z,100816.84
2022-08-05T03:58:10.662Z,100811.56
2022-08-05T03:58:37.000Z,100808.13
2022-08-05T03:59:08.047Z,100797.41
2022-08-05T03:59:46.814Z,100799.50
2022-08-05T04:00:15.800Z,100789.94
2022-08-05T04:00:42.066Z,100795.22
2022-08-05T04:01:08.567Z,100781.28
2022-08-05T04:01:37.581Z,100793.09
2022-08-05T04:02:02.159Z,100793.38
2022-08-05T04:02:38.469Z,100792.50
2022-08-05T04:03:08.256Z,100797.06
2022-08-05T04:04:10.218Z,100798.69
2022-08-05T04:04:33.914Z,100802.69
2022-08-05T04:04:58.392Z,100802.59
2022-08-05T04:05:21.258Z,100803.81
2022-08-05T04:05:45.549Z,100800.53
2022-08-05T04:06:10.936Z,100802.59
2022-08-05T04:06:34.795Z,100809.16
2022-08-05T04:06:59.053Z,100806.94
2022-08-05T04:07:22.641Z,100807.94
2022-08-05T04:07:53.525Z,100804.25
2022-08-05T04:08:34.595Z,100801.41
2022-08-05T04:09:00.061Z,100797.44
2022-08-05T04:09:26.486Z,100794.63
2022-08-05T04:09:53.821Z,100796.31
2022-08-05T04:10:17.604Z,100791.78
2022-08-05T04:10:40.841Z,100785.47
2022-08-05T04:11:03.086Z,100798.19
2022-08-05T04:11:25.264Z,100791.78
2022-08-05T04:12:24.600Z,100789.06
2022-08-05T04:12:46.722Z,100784.03
2022-08-05T04:13:08.730Z,100775.66
2022-08-05T04:13:50.487Z,100784.78
2022-08-05T04:14:17.858Z,100778.75
2022-08-05T04:14:40.952Z,100777.50
2022-08-05T04:15:06.894Z,100780.94
2022-08-05T04:15:32.980Z,100781.66
2022-08-05T04:16:03.374Z,100773.44
2022-08-05T04:16:32.326Z,100769.69
2022-08-05T04:16:54.939Z,100780.06
2022-08-05T04:17:16.812Z,100778.38
2022-08-05T04:17:56.624Z,100772.09
2022-08-05T04:18:22.559Z,100775.66
2022-08-05T04:18:47.571Z,100777.75
2022-08-05T04:19:16.225Z,100771.47
2022-08-05T04:19:44.131Z,100765.84
2022-08-05T04:20:07.633Z,100771.00
2022-08-05T04:20:32.505Z,100764.59
2022-08-05T04:20:56.262Z,100767.06
2022-08-05T04:22:09.545Z,100769.63
2022-08-05T04:22:09.668Z,100761.25
2022-08-05T04:22:33.556Z,100759.25
2022-08-05T04:22:56.739Z,100755.56
2022-08-05T04:23:19.756Z,100758.16
2022-08-05T04:24:06.503Z,100749.44
2022-08-05T04:24:30.869Z,100739.91
2022-08-05T04:24:53.872Z,100746.91
2022-08-05T04:25:15.957Z,100747.78
2022-08-05T04:25:56.855Z,100736.94
2022-08-05T04:26:19.297Z,100739.41
2022-08-05T04:26:41.925Z,100730.31
2022-08-05T04:27:03.774Z,100730.03
2022-08-05T04:27:33.151Z,100728.06
2022-08-05T04:28:11.294Z,100726.09
2022-08-05T04:28:34.343Z,100721.38
2022-08-05T04:28:56.577Z,100717.56
2022-08-05T04:29:19.707Z,100713.00
2022-08-05T04:29:41.782Z,100712.16
2022-08-05T04:30:05.643Z,100705.88
2022-08-05T04:30:27.392Z,100702.16
2022-08-05T04:30:51.273Z,100700.44
2022-08-05T04:31:12.980Z,100691.84
2022-08-05T04:31:38.450Z,100697.00
2022-08-05T04:32:00.541Z,100689.72
2022-08-05T04:32:33.149Z,100682.56
2022-08-05T04:32:55.167Z,100683.31
2022-08-05T04:33:20.490Z,100685.91
2022-08-05T04:34:18.975Z,100671.94
2022-08-05T04:34:43.598Z,100665.66
2022-08-05T04:35:06.720Z,100671.09
2022-08-05T04:36:16.716Z,100671.94
2022-08-05T04:36:45.634Z,100684.38
2022-08-05T04:37:04.379Z,100694.22
2022-08-05T04:38:01.669Z,100702.22
2022-08-05T04:38:10.195Z,100716.78
2022-08-05T04:38:39.479Z,100734.16
2022-08-05T04:39:01.934Z,100741.28
2022-08-05T04:39:24.681Z,100738.59
2022-08-05T04:39:52.854Z,100749.31
2022-08-05T04:40:19.407Z,100746.44
2022-08-05T04:40:44.466Z,100742.75
2022-08-05T04:41:13.669Z,100739.16
2022-08-05T04:41:37.255Z,100735.75
2022-08-05T04:42:00.452Z,100734.75
2022-08-05T04:42:23.529Z,100720.34
2022-08-05T04:42:48.187Z,100717.63
2022-08-05T04:43:16.329Z,100724.75
2022-08-05T04:43:46.603Z,100715.91
2022-08-05T04:44:10.990Z,100718.34
2022-08-05T04:44:32.651Z,100734.50
2022-08-05T04:44:54.338Z,100739.06
2022-08-05T04:45:31.217Z,100747.19
2022-08-05T04:46:00.687Z,100764.44
2022-08-05T04:46:27.955Z,100771.84
2022-08-05T04:46:50.280Z,100772.84
2022-08-05T04:47:20.044Z,100771.00
2022-08-05T04:47:42.852Z,100773.69
2022-08-05T04:48:10.354Z,100777.41
2022-08-05T04:48:41.352Z,100768.28
2022-08-05T04:49:03.680Z,100780.00
2022-08-05T04:49:38.596Z,100773.81
2022-08-05T04:50:11.564Z,100772.56
2022-08-05T04:51:01.751Z,100779.59
2022-08-05T04:51:20.663Z,100778.34
2022-08-05T04:51:45.760Z,100782.91
2022-08-05T04:52:08.889Z,100767.63
2022-08-05T04:52:34.070Z,100778.22
2022-08-05T04:52:56.212Z,100774.47
2022-08-05T04:53:20.071Z,100780.66
2022-08-05T04:53:42.427Z,100782.25
2022-08-05T04:54:05.767Z,100781.41
2022-08-05T04:54:28.509Z,100792.09
2022-08-05T04:54:50.134Z,100784.81
2022-08-05T04:55:14.377Z,100782.84
2022-08-05T04:56:33.657Z,100791.69
2022-08-05T04:56:34.655Z,100797.13
2022-08-05T04:56:59.860Z,100799.69
2022-08-05T04:57:21.839Z,100802.28
2022-08-05T04:57:51.628Z,100798.59
2022-08-05T04:58:21.564Z,100803.00
2022-08-05T04:58:44.438Z,100809.16
2022-08-05T04:59:21.806Z,100804.59
2022-08-05T04:59:48.137Z,100813.72
2022-08-05T05:00:12.406Z,100807.44
2022-08-05T05:00:37.123Z,100810.28
2022-08-05T05:01:00.148Z,100805.72
2022-08-05T05:02:04.041Z,100812.75
2022-08-05T05:02:07.316Z,100800.91
2022-08-05T05:02:47.788Z,100806.19
2022-08-05T05:03:12.012Z,100804.34
2022-08-05T05:03:42.812Z,100799.88
2022-08-05T05:04:05.783Z,100804.50
2022-08-05T05:04:27.448Z,100805.47
2022-08-05T05:04:50.496Z,100799.19
2022-08-05T05:05:16.511Z,100805.47
2022-08-05T05:06:39.694Z,100805.47
2022-08-05T05:06:40.556Z,100802.13
2022-08-05T05:07:09.378Z,100813.00
2022-08-05T05:07:35.672Z,100800.56
2022-08-05T05:08:02.090Z,100810.28
2022-08-05T05:08:26.607Z,100814.88
2022-08-05T05:08:52.140Z,100808.44
2022-08-05T05:09:17.495Z,100813.00
2022-08-05T05:09:40.079Z,100811.13
2022-08-05T05:10:06.231Z,100816.56
2022-08-05T05:10:29.673Z,100809.16
2022-08-05T05:10:56.391Z,100812.16
2022-08-05T05:11:18.304Z,100811.41
2022-08-05T05:11:55.398Z,100809.81
2022-08-05T05:12:19.515Z,100807.25
2022-08-05T05:12:42.258Z,100814.25
2022-08-05T05:13:04.583Z,100819.66
2022-08-05T05:13:26.405Z,100818.81
2022-08-05T05:13:55.361Z,100814.13
2022-08-05T05:14:17.085Z,100809.56
2022-08-05T05:14:51.256Z,100819.56
2022-08-05T05:15:17.511Z,100815.09
2022-08-05T05:16:01.863Z,100811.69
2022-08-05T05:16:30.370Z,100811.69
2022-08-05T05:16:52.153Z,100815.09
2022-08-05T05:17:21.189Z,100811.41
2022-08-05T05:17:57.158Z,100815.09
2022-08-05T05:18:31.224Z,100808.97
2022-08-05T05:19:17.572Z,100806.00
2022-08-05T05:19:44.426Z,100802.53
2022-08-05T05:20:10.839Z,100805.41
2022-08-05T05:20:33.271Z,100804.53
2022-08-05T05:20:55.829Z,100806.25
2022-08-05T05:21:20.212Z,100791.69
2022-08-05T05:21:41.910Z,100798.84
2022-08-05T05:22:23.135Z,100796.88
2022-08-05T05:22:47.452Z,100791.03
2022-08-05T05:23:19.938Z,100798.31
2022-08-05T05:24:03.927Z,100797.19
2022-08-05T05:24:59.114Z,100788.06
2022-08-05T05:25:15.966Z,100797.19
2022-08-05T05:25:41.319Z,100788.22
2022-08-05T05:26:03.314Z,100801.78
2022-08-05T05:26:28.427Z,100790.94
2022-08-05T05:26:54.589Z,100800.91
2022-08-05T05:27:18.520Z,100790.19
2022-08-05T05:27:45.592Z,100794.75
2022-08-05T05:28:08.221Z,100796.59
2022-08-05T05:28:31.087Z,100802.88
2022-08-05T05:28:52.818Z,100803.75
2022-08-05T05:29:16.207Z,100802.75
2022-08-05T05:30:03.382Z,100800.16
2022-08-05T05:30:31.357Z,100788.84
2022-08-05T05:30:56.016Z,100797.56
2022-08-05T05:31:18.558Z,100802.03
2022-08-05T05:31:42.004Z,100797.47
2022-08-05T05:32:08.116Z,100801.03